USCGC Healy — NEPP — position and weather

sailwx.info

Track history (hours):
 
Tides and Currents Weather Stations Pressure Air Temp Water Temp Dewpoint Dewpoint Depression Visibility Wind Speed Wind Dir Waves Ship Positions

Oceanographic research ship USCGC Healy (USA)

Detailed information on ship capabilities available from University of Delaware's Ocean Information Center and ARCUS's ALIAS (Arctic Logistics Information and Support) project.

Last reported at 2015-Aug-29 15:00 UTC. Time now 2015-Sep-02 16:58 UTC.
Position N 84°42' E 171°12'.

Type: Dredging. MMSI: 303902000.

Wind from 060 at 15 knots

Barometer 1018.7 mb
Air temperature -2.2 ° C
Visibility: greater than 5.4 NM
Water temperature -1.7 ° C

Date/timePositionNaut miles runAvg speedWind from/ knotsBaromVisibWave heightAir tempDewpointWater temp
2015-Aug-29 15:00N 84°42' E 171°12'68 3.8 060 / 151018.7 5.4 -2.2 -1.7
2015-Aug-28 21:00N 83°36' E 173°54'8 0.4 030 / 181017.8 29.0 29.0
2015-Aug-28 03:00N 83°42' E 174°42'   020 / 151017.6 5.4 -0.0 -1.4
2015-Aug-25 18:00N 81°06' E 179°18'24 8.0 050 / 151024.3 5.4 -1.1 -1.7
2015-Aug-25 15:00N 80°48' W 179°00'14 4.8 080 / 81024.2 5.4 1.1 -1.7
2015-Aug-25 12:00N 80°36' W 179°48'33 5.4 070 / 111024.0 5.4 1.1 -1.7
2015-Aug-25 06:00N 80°12' W 177°36'5 1.7 060 / 71023.7 1.1 -0.0 -1.1
2015-Aug-25 03:00N 80°12' W 177°06'13 4.3 070 / 131024.7 1.1 -1.1 -1.3
2015-Aug-25 00:00N 80°06' W 176°00'15 5.1 100 / 151025.0 -1.1 -1.3
2015-Aug-24 21:00N 79°54' W 175°06'1 0.2 100 / 111024.0 5.4 -1.1 -1.7
2015-Aug-24 15:00N 79°54' W 175°00'0 0.0 090 / 21023.7 5.4 -1.7 -1.1
2015-Aug-24 12:00N 79°54' W 175°00'0 0.0 360 / 51024.4 5.4 2.2 -1.3
2015-Aug-24 09:00N 79°54' W 175°00'0 0.0 310 / 61025.5 5.4 -1.7 -1.7
2015-Aug-24 06:00N 79°54' W 175°00'0 0.0 340 / 61023.0 -2.2 -1.3
2015-Aug-24 03:00N 79°54' W 175°00'1 0.4 330 / 71027.1 5.4 30.0 30.0
2015-Aug-24 00:00N 79°54' W 174°54'0 0.0 330 / 81027.010.8 29.0 -1.3
2015-Aug-23 21:00N 79°54' W 174°54'0 0.0 330 / 71028.0 5.4 -1.7 -1.1
2015-Aug-23 18:00N 79°54' W 174°54'12 4.1 360 / 101028.0 0.5 33.0 -1.7
2015-Aug-23 15:00N 79°42' W 175°06'24 8.0 020 / 71028.0 0.6 -1.7
2015-Aug-23 12:00N 79°18' W 175°12'19 6.3 030 / 111027.0 0.6 0.6-1.7
2015-Aug-23 09:00N 79°00' W 175°42'6 2.0 050 / 101026.7 2.2 1.1 1.1-1.1
2015-Aug-23 06:00N 78°54' W 175°48'25 8.2 020 / 71026.5 5.4 0.6 0.6 1.7
2015-Aug-23 03:00N 78°30' W 176°18'19866.0 020 / 91025.6 5.4 1.1 -1.3
2015-Aug-23 00:00N 75°12' W 176°42'17487.0 040 / 71025.0 5.4 31.0 -1.1
2015-Aug-22 22:00N 78°06' W 176°42'13 3.1 080 / 51025.5 5.4 -0.0 -1.7
2015-Aug-22 18:00N 77°54' W 176°24'12 4.1 090 / 91024.4 5.4 -0.0 -1.7
2015-Aug-22 15:00N 77°42' W 176°12'20 6.7 090 / 61024.0 5.4 0.6 -1.1
2015-Aug-22 12:00N 77°24' W 175°30'9 3.0 070 / 81023.4 5.4 0.6 -0.7
2015-Aug-22 09:00N 77°18' W 175°00'54 3.0 060 / 71023.4 5.4 -0.0-0.0-0.0
2015-Aug-21 15:00N 76°30' W 173°12'0 0.0 080 / 71022.2 5.4 1.7 -1.1
2015-Aug-21 12:00N 76°30' W 173°12'1 0.5 090 / 71022.2 5.4 2.2 -0.8
2015-Aug-21 09:00N 76°30' W 173°06'0 0.0 070 / 71023.0 2.0 -0.8
2015-Aug-21 06:00N 76°30' W 173°06'1 0.7 070 / 101023.7 2.2 1.7 -0.7
2015-Aug-21 04:00N 76°30' W 173°00'0 0.0 080 / 101023.0 0.3 35.0 -0.7
2015-Aug-21 00:00N 76°30' W 173°00'1 0.5 080 / 101023.9 2.2 0.6 -0.6
2015-Aug-20 21:00N 76°30' W 172°54'47 5.2 080 / 91024.0 5.4 1.1 0.6
2015-Aug-20 12:00N 75°48' W 171°30'7 2.2 350 / 111025.7 5.4 36.0 -1.1
2015-Aug-20 09:00N 75°42' W 171°18'11 3.6 030 / 121025.0 2.8 0.6
2015-Aug-20 06:00N 75°36' W 170°42'12 4.1 030 / 151025.0 5.4 1.7 -1.1
2015-Aug-20 03:00N 75°24' W 170°30'24 8.1 020 / 121025.7 1.1 2.2 -1.1
2015-Aug-20 00:00N 75°00' W 170°42'   040 / 201026.0 2.2 1.1 -0.5
Track history (hours):
 
Tides and Currents Weather Stations Pressure Air Temp Water Temp Dewpoint Dewpoint Depression Visibility Wind Speed Wind Dir Waves Ship Positions

Oceanographic research ship USCGC Healy (USA)

Detailed information on ship capabilities available from University of Delaware's Ocean Information Center and ARCUS's ALIAS (Arctic Logistics Information and Support) project.

Last reported at 2015-Aug-29 15:00 UTC. Time now 2015-Sep-02 16:58 UTC.
Position N 84°42' E 171°12'.

Type: Dredging. MMSI: 303902000.

Wind from 060 at 15 knots

Barometer 1018.7 mb
Air temperature -2.2 ° C
Visibility: greater than 5.4 NM
Water temperature -1.7 ° C

Date/timePositionNaut miles runAvg speedWind from/ knotsBaromVisibWave heightAir tempDewpointWater temp
2015-Aug-29 15:00N 84°42' E 171°12'68 3.8 060 / 151018.7 5.4 -2.2 -1.7
2015-Aug-28 21:00N 83°36' E 173°54'8 0.4 030 / 181017.8 29.0 29.0
2015-Aug-28 03:00N 83°42' E 174°42'   020 / 151017.6 5.4 -0.0 -1.4
2015-Aug-25 18:00N 81°06' E 179°18'24 8.0 050 / 151024.3 5.4 -1.1 -1.7
2015-Aug-25 15:00N 80°48' W 179°00'14 4.8 080 / 81024.2 5.4 1.1 -1.7
2015-Aug-25 12:00N 80°36' W 179°48'33 5.4 070 / 111024.0 5.4 1.1 -1.7
2015-Aug-25 06:00N 80°12' W 177°36'5 1.7 060 / 71023.7 1.1 -0.0 -1.1
2015-Aug-25 03:00N 80°12' W 177°06'13 4.3 070 / 131024.7 1.1 -1.1 -1.3
2015-Aug-25 00:00N 80°06' W 176°00'15 5.1 100 / 151025.0 -1.1 -1.3
2015-Aug-24 21:00N 79°54' W 175°06'1 0.2 100 / 111024.0 5.4 -1.1 -1.7
2015-Aug-24 15:00N 79°54' W 175°00'0 0.0 090 / 21023.7 5.4 -1.7 -1.1
2015-Aug-24 12:00N 79°54' W 175°00'0 0.0 360 / 51024.4 5.4 2.2 -1.3
2015-Aug-24 09:00N 79°54' W 175°00'0 0.0 310 / 61025.5 5.4 -1.7 -1.7
2015-Aug-24 06:00N 79°54' W 175°00'0 0.0 340 / 61023.0 -2.2 -1.3
2015-Aug-24 03:00N 79°54' W 175°00'1 0.4 330 / 71027.1 5.4 30.0 30.0
2015-Aug-24 00:00N 79°54' W 174°54'0 0.0 330 / 81027.010.8 29.0 -1.3
2015-Aug-23 21:00N 79°54' W 174°54'0 0.0 330 / 71028.0 5.4 -1.7 -1.1
2015-Aug-23 18:00N 79°54' W 174°54'12 4.1 360 / 101028.0 0.5 33.0 -1.7
2015-Aug-23 15:00N 79°42' W 175°06'24 8.0 020 / 71028.0 0.6 -1.7
2015-Aug-23 12:00N 79°18' W 175°12'19 6.3 030 / 111027.0 0.6 0.6-1.7
2015-Aug-23 09:00N 79°00' W 175°42'6 2.0 050 / 101026.7 2.2 1.1 1.1-1.1
2015-Aug-23 06:00N 78°54' W 175°48'25 8.2 020 / 71026.5 5.4 0.6 0.6 1.7
2015-Aug-23 03:00N 78°30' W 176°18'19866.0 020 / 91025.6 5.4 1.1 -1.3
2015-Aug-23 00:00N 75°12' W 176°42'17487.0 040 / 71025.0 5.4 31.0 -1.1
2015-Aug-22 22:00N 78°06' W 176°42'13 3.1 080 / 51025.5 5.4 -0.0 -1.7
2015-Aug-22 18:00N 77°54' W 176°24'12 4.1 090 / 91024.4 5.4 -0.0 -1.7
2015-Aug-22 15:00N 77°42' W 176°12'20 6.7 090 / 61024.0 5.4 0.6 -1.1
2015-Aug-22 12:00N 77°24' W 175°30'9 3.0 070 / 81023.4 5.4 0.6 -0.7
2015-Aug-22 09:00N 77°18' W 175°00'54 3.0 060 / 71023.4 5.4 -0.0-0.0-0.0
2015-Aug-21 15:00N 76°30' W 173°12'0 0.0 080 / 71022.2 5.4 1.7 -1.1
2015-Aug-21 12:00N 76°30' W 173°12'1 0.5 090 / 71022.2 5.4 2.2 -0.8
2015-Aug-21 09:00N 76°30' W 173°06'0 0.0 070 / 71023.0 2.0 -0.8
2015-Aug-21 06:00N 76°30' W 173°06'1 0.7 070 / 101023.7 2.2 1.7 -0.7
2015-Aug-21 04:00N 76°30' W 173°00'0 0.0 080 / 101023.0 0.3 35.0 -0.7
2015-Aug-21 00:00N 76°30' W 173°00'1 0.5 080 / 101023.9 2.2 0.6 -0.6
2015-Aug-20 21:00N 76°30' W 172°54'47 5.2 080 / 91024.0 5.4 1.1 0.6
2015-Aug-20 12:00N 75°48' W 171°30'7 2.2 350 / 111025.7 5.4 36.0 -1.1
2015-Aug-20 09:00N 75°42' W 171°18'11 3.6 030 / 121025.0 2.8 0.6
2015-Aug-20 06:00N 75°36' W 170°42'12 4.1 030 / 151025.0 5.4 1.7 -1.1
2015-Aug-20 03:00N 75°24' W 170°30'24 8.1 020 / 121025.7 1.1 2.2 -1.1
2015-Aug-20 00:00N 75°00' W 170°42'   040 / 201026.0 2.2 1.1 -0.5

Dump ship's entire track history